Time;durP1;ratioP1;P1;durP2;ratioP2;P2;SDS_P1;SDS_P2;PMS_P1;PMS_P2;Temp;Humidity;BMP_temperature;BMP_pressure;BME280_temperature;BME280_humidity;BME280_pressure;Samples;Min_cycle;Max_cycle;Signal;HPM_P1;HPM_P2
2023/05/13 00:00:27;;;;;;;14.35;12.40;;;12.90;99.90;;;;;;5093462;28;20039;-86
2023/05/13 00:02:53;;;;;;;16.35;12.63;;;12.90;99.90;;;;;;5093515;28;20040;-87
2023/05/13 00:05:20;;;;;;;17.77;12.65;;;12.90;99.90;;;;;;5093545;28;20379;-87
2023/05/13 00:07:46;;;;;;;14.95;11.88;;;12.80;99.90;;;;;;5092057;28;20609;-86
2023/05/13 00:10:11;;;;;;;17.60;12.13;;;12.90;99.90;;;;;;5093257;28;20127;-87
2023/05/13 00:12:37;;;;;;;15.45;11.82;;;12.90;99.90;;;;;;5096432;28;20079;-87
2023/05/13 00:15:03;;;;;;;16.35;12.15;;;12.90;99.90;;;;;;5096333;28;20040;-87
2023/05/13 00:17:29;;;;;;;19.73;12.35;;;12.80;99.90;;;;;;5096222;28;20071;-87
2023/05/13 00:19:55;;;;;;;15.68;11.60;;;12.80;99.90;;;;;;5096182;28;20070;-87
2023/05/13 00:22:20;;;;;;;15.02;10.88;;;12.90;99.90;;;;;;5097342;28;20122;-87
2023/05/13 00:24:46;;;;;;;17.58;11.05;;;12.80;99.90;;;;;;5096907;28;20464;-86
2023/05/13 00:27:11;;;;;;;16.00;10.93;;;12.80;99.90;;;;;;5097019;28;20542;-87
2023/05/13 00:29:37;;;;;;;14.68;11.45;;;12.90;99.90;;;;;;5097121;28;20518;-87
2023/05/13 00:32:03;;;;;;;15.70;11.30;;;12.80;99.90;;;;;;5097337;28;20074;-87
2023/05/13 00:34:29;;;;;;;13.88;10.45;;;12.90;99.90;;;;;;5096820;28;20135;-87
2023/05/13 00:36:54;;;;;;;14.55;10.52;;;12.90;99.90;;;;;;5097009;28;20036;-87
2023/05/13 00:39:20;;;;;;;14.73;11.00;;;12.90;99.90;;;;;;5096938;28;20079;-87
2023/05/13 00:41:46;;;;;;;18.02;11.60;;;12.90;99.90;;;;;;5096844;28;20139;-87
2023/05/13 00:44:11;;;;;;;20.65;10.90;;;12.90;99.90;;;;;;5096838;28;20036;-87
2023/05/13 00:46:37;;;;;;;17.55;11.07;;;12.90;99.90;;;;;;5096729;28;20044;-87
2023/05/13 00:49:04;;;;;;;15.38;10.70;;;12.90;99.90;;;;;;5096737;28;20057;-87
2023/05/13 00:51:31;;;;;;;13.25;10.18;;;12.90;99.90;;;;;;5095329;28;20051;-86
2023/05/13 00:53:58;;;;;;;17.40;11.23;;;12.90;99.90;;;;;;5095570;28;20395;-87
2023/05/13 00:56:25;;;;;;;15.35;10.93;;;12.90;99.90;;;;;;5096642;28;20499;-87
2023/05/13 00:58:51;;;;;;;14.45;10.07;;;12.90;99.90;;;;;;5096518;28;20044;-87
2023/05/13 01:01:51;;;;;;;17.80;11.18;;;12.90;99.90;;;;;;5096581;28;20495;-87
2023/05/13 01:04:34;;;;;;;12.48;10.50;;;12.90;99.90;;;;;;5069977;28;20056;-87
2023/05/13 01:07:26;;;;;;;15.25;10.40;;;12.90;99.90;;;;;;5096399;28;20044;-87
2023/05/13 01:10:16;;;;;;;16.20;11.13;;;12.90;99.90;;;;;;5094933;28;20048;-87
2023/05/13 01:12:45;;;;;;;24.05;13.63;;;12.80;99.90;;;;;;5096303;28;20048;-87
2023/05/13 01:15:24;;;;;;;19.42;12.35;;;12.80;99.90;;;;;;5094982;28;20043;-87
2023/05/13 01:18:02;;;;;;;15.52;11.50;;;12.80;99.90;;;;;;5096323;28;20047;-87
2023/05/13 01:20:29;;;;;;;15.77;11.38;;;12.70;99.90;;;;;;5095089;28;20135;-87
2023/05/13 01:22:55;;;;;;;16.70;11.43;;;12.60;99.90;;;;;;5095104;28;20040;-87
2023/05/13 01:25:22;;;;;;;17.25;11.27;;;12.60;99.90;;;;;;5094711;28;20145;-87
2023/05/13 01:27:49;;;;;;;15.98;11.55;;;12.60;99.90;;;;;;5094660;28;20098;-87
2023/05/13 01:30:15;;;;;;;15.50;10.57;;;12.60;99.90;;;;;;5095943;28;20040;-87
2023/05/13 01:32:41;;;;;;;17.52;11.10;;;12.60;99.90;;;;;;5095281;28;20372;-87
2023/05/13 01:35:09;;;;;;;20.92;11.95;;;12.60;99.90;;;;;;5095956;28;20075;-87
2023/05/13 01:37:36;;;;;;;17.45;11.57;;;12.70;99.90;;;;;;5094762;28;20546;-87
2023/05/13 01:40:01;;;;;;;16.55;11.45;;;12.70;99.90;;;;;;5094837;28;20082;-87
2023/05/13 01:42:29;;;;;;;17.27;12.48;;;12.70;99.90;;;;;;5094729;28;20048;-87
2023/05/13 01:44:54;;;;;;;16.67;12.63;;;12.70;99.90;;;;;;5094274;28;20040;-87
2023/05/13 01:47:20;;;;;;;20.85;13.52;;;12.70;99.90;;;;;;5095436;28;20085;-87
2023/05/13 01:49:45;;;;;;;17.35;13.00;;;12.60;99.90;;;;;;5095587;28;20131;-87
2023/05/13 01:52:11;;;;;;;17.30;12.88;;;12.60;99.90;;;;;;5094219;28;20173;-87
2023/05/13 01:54:37;;;;;;;22.05;13.25;;;12.60;99.90;;;;;;5095462;28;20060;-86
2023/05/13 01:57:03;;;;;;;18.05;13.32;;;12.60;99.90;;;;;;5095424;28;20102;-87
2023/05/13 01:59:29;;;;;;;20.35;13.40;;;12.60;99.90;;;;;;5095198;28;20051;-86
2023/05/13 02:01:54;;;;;;;18.55;14.45;;;12.60;99.90;;;;;;5095142;28;20043;-87
2023/05/13 02:04:20;;;;;;;19.67;13.45;;;12.70;99.90;;;;;;5095358;28;20503;-86
2023/05/13 02:06:46;;;;;;;21.25;14.82;;;12.60;99.90;;;;;;5095136;28;20055;-87
2023/05/13 02:09:12;;;;;;;19.23;14.27;;;12.60;99.90;;;;;;5093971;28;20399;-86
2023/05/13 02:11:38;;;;;;;21.00;13.32;;;12.60;99.90;;;;;;5095209;28;20040;-86
2023/05/13 02:14:04;;;;;;;21.30;13.75;;;12.60;99.90;;;;;;5093902;28;20392;-87
2023/05/13 02:16:30;;;;;;;14.60;11.90;;;12.50;99.90;;;;;;5094958;28;20528;-87
2023/05/13 02:18:56;;;;;;;14.45;11.70;;;12.50;99.90;;;;;;5094962;28;20051;-87
2023/05/13 02:21:22;;;;;;;15.85;11.30;;;12.40;99.90;;;;;;5094931;28;20071;-87
2023/05/13 02:23:47;;;;;;;16.52;10.88;;;12.50;99.90;;;;;;5093721;28;20079;-87
2023/05/13 02:26:14;;;;;;;14.82;10.43;;;12.40;99.90;;;;;;5093237;28;20071;-86
2023/05/13 02:28:40;;;;;;;17.02;11.63;;;12.40;99.90;;;;;;5094556;28;20132;-87
2023/05/13 02:31:05;;;;;;;13.93;10.65;;;12.50;99.90;;;;;;5095081;28;20454;-87
2023/05/13 02:33:31;;;;;;;16.45;10.65;;;12.50;99.90;;;;;;5094560;28;20068;-87
2023/05/13 02:35:56;;;;;;;15.55;10.98;;;12.40;99.90;;;;;;5094748;28;20464;-87
2023/05/13 02:38:22;;;;;;;14.57;9.88;;;12.40;99.90;;;;;;5093654;28;20052;-87
2023/05/13 02:40:48;;;;;;;14.65;10.98;;;12.50;99.90;;;;;;5094330;28;20373;-86
2023/05/13 02:43:14;;;;;;;16.00;10.45;;;12.50;99.90;;;;;;5094342;28;20048;-87
2023/05/13 02:45:40;;;;;;;21.10;10.18;;;12.40;99.90;;;;;;5094540;28;20047;-86
2023/05/13 02:48:06;;;;;;;16.00;11.20;;;12.50;99.90;;;;;;5094254;28;20492;-86
2023/05/13 02:50:32;;;;;;;14.10;10.35;;;12.40;99.90;;;;;;5094379;28;20062;-87
2023/05/13 02:52:57;;;;;;;14.90;10.70;;;12.40;99.90;;;;;;5092897;28;20078;-87
2023/05/13 02:55:23;;;;;;;18.63;10.27;;;12.50;99.90;;;;;;5094346;28;20077;-87
2023/05/13 02:57:49;;;;;;;20.52;10.60;;;12.50;99.90;;;;;;5094355;28;20488;-87
2023/05/13 03:00:15;;;;;;;15.27;10.52;;;12.50;99.90;;;;;;5094290;28;20039;-87
2023/05/13 03:02:41;;;;;;;14.90;10.82;;;12.50;99.90;;;;;;5094277;28;20067;-87
2023/05/13 03:05:07;;;;;;;13.70;10.43;;;12.50;99.90;;;;;;5092890;28;20075;-86
2023/05/13 03:07:33;;;;;;;15.05;10.20;;;12.50;99.90;;;;;;5092837;28;20040;-87
2023/05/13 03:09:59;;;;;;;18.73;10.88;;;12.50;99.90;;;;;;5092849;28;20438;-87
2023/05/13 03:12:24;;;;;;;15.07;10.52;;;12.40;99.90;;;;;;5092866;28;20487;-87
2023/05/13 03:14:50;;;;;;;15.32;10.57;;;12.50;99.90;;;;;;5093954;28;20364;-87
2023/05/13 03:17:16;;;;;;;18.33;10.60;;;12.40;99.90;;;;;;5094070;28;20135;-87
2023/05/13 03:19:41;;;;;;;14.82;10.20;;;12.50;99.90;;;;;;5092882;28;20101;-87
2023/05/13 03:22:07;;;;;;;15.95;10.00;;;12.40;99.90;;;;;;5094031;28;20050;-87
2023/05/13 03:24:33;;;;;;;16.63;10.63;;;12.40;99.90;;;;;;5093853;28;20125;-87
2023/05/13 03:27:00;;;;;;;15.40;9.90;;;12.40;99.90;;;;;;5093378;28;20052;-87
2023/05/13 03:29:28;;;;;;;17.98;10.43;;;12.40;99.90;;;;;;5093652;28;20119;-86
2023/05/13 03:31:54;;;;;;;15.43;10.60;;;12.50;99.90;;;;;;5092557;28;20138;-87
2023/05/13 03:34:19;;;;;;;13.82;10.40;;;12.40;99.90;;;;;;5093515;28;20123;-87
2023/05/13 03:36:45;;;;;;;19.45;10.52;;;12.40;99.90;;;;;;5092535;28;20048;-87
2023/05/13 03:39:11;;;;;;;18.15;9.13;;;12.40;99.90;;;;;;5092082;28;20054;-86
2023/05/13 03:41:36;;;;;;;12.23;9.23;;;12.30;99.90;;;;;;5093702;28;20048;-86
2023/05/13 03:44:02;;;;;;;14.85;9.32;;;12.30;99.90;;;;;;5093855;28;20040;-86
2023/05/13 03:46:28;;;;;;;12.63;9.23;;;12.40;99.90;;;;;;5099578;28;20051;-86
2023/05/13 03:48:54;;;;;;;11.05;8.65;;;12.40;99.90;;;;;;5100426;28;20048;-86
2023/05/13 03:51:20;;;;;;;12.57;9.45;;;12.40;99.90;;;;;;5100435;28;20036;-86
2023/05/13 03:53:46;;;;;;;12.90;10.07;;;12.40;99.90;;;;;;5100149;28;20059;-87
2023/05/13 03:56:13;;;;;;;14.05;9.90;;;12.40;99.90;;;;;;5100393;28;20047;-87
2023/05/13 03:58:38;;;;;;;12.05;9.93;;;12.40;99.90;;;;;;5100368;28;20157;-87
2023/05/13 04:01:05;;;;;;;13.10;9.05;;;12.40;99.90;;;;;;5100016;28;20090;-87
2023/05/13 04:03:31;;;;;;;12.52;9.20;;;12.40;99.90;;;;;;5100074;28;20047;-87
2023/05/13 04:05:57;;;;;;;17.95;9.48;;;12.50;99.90;;;;;;5100009;28;20075;-87
2023/05/13 04:08:23;;;;;;;12.55;9.77;;;12.50;99.90;;;;;;5099894;28;20529;-87
2023/05/13 04:10:48;;;;;;;15.27;9.90;;;12.50;99.90;;;;;;5100202;28;20051;-86
2023/05/13 04:13:14;;;;;;;12.98;9.25;;;12.50;99.90;;;;;;5098930;28;20434;-87
2023/05/13 04:15:40;;;;;;;12.63;9.35;;;12.50;99.90;;;;;;5099107;28;20040;-87
2023/05/13 04:18:05;;;;;;;25.30;9.63;;;12.40;99.90;;;;;;5099841;28;20484;-87
2023/05/13 04:20:31;;;;;;;15.90;9.32;;;12.40;99.90;;;;;;5099922;28;20048;-87
2023/05/13 04:22:56;;;;;;;13.38;10.23;;;12.50;99.90;;;;;;5100022;28;20110;-87
2023/05/13 04:25:22;;;;;;;14.75;10.48;;;12.50;99.90;;;;;;5098374;28;20127;-87
2023/05/13 04:27:48;;;;;;;18.55;10.77;;;12.60;99.90;;;;;;5099961;28;20081;-87
2023/05/13 04:30:15;;;;;;;15.52;10.00;;;12.50;99.90;;;;;;5099819;28;20051;-87
2023/05/13 04:32:40;;;;;;;16.60;9.93;;;12.50;99.90;;;;;;5099668;28;20423;-86
2023/05/13 04:35:07;;;;;;;14.95;10.07;;;12.60;99.90;;;;;;5099746;28;20507;-87
2023/05/13 04:37:32;;;;;;;18.50;10.00;;;12.60;99.90;;;;;;5098365;28;20044;-87
2023/05/13 04:39:58;;;;;;;12.65;9.43;;;12.60;99.90;;;;;;5099940;28;20051;-86
2023/05/13 04:42:24;;;;;;;17.15;10.93;;;12.70;99.90;;;;;;5099843;28;20043;-87
2023/05/13 04:44:50;;;;;;;14.10;9.35;;;12.80;99.90;;;;;;5099877;28;20048;-87
2023/05/13 04:47:15;;;;;;;14.95;9.50;;;12.80;99.90;;;;;;5099614;28;20047;-86
2023/05/13 04:49:41;;;;;;;14.68;10.27;;;12.70;99.90;;;;;;5098610;28;20048;-87
2023/05/13 04:52:07;;;;;;;14.27;9.40;;;12.80;99.90;;;;;;5098205;28;20036;-87
2023/05/13 04:54:34;;;;;;;11.40;9.73;;;12.80;99.90;;;;;;5098376;28;20055;-87
2023/05/13 04:57:01;;;;;;;14.30;9.20;;;12.80;99.90;;;;;;5097591;28;20079;-87
2023/05/13 04:59:27;;;;;;;13.07;9.05;;;12.90;99.90;;;;;;5095572;28;20491;-87
2023/05/13 05:01:53;;;;;;;12.75;9.05;;;12.90;99.90;;;;;;5096544;28;20044;-87
2023/05/13 05:04:19;;;;;;;11.73;8.57;;;13.00;99.90;;;;;;5095040;28;20044;-87
2023/05/13 05:06:44;;;;;;;13.40;8.80;;;13.10;99.90;;;;;;5095002;28;20040;-87
2023/05/13 05:09:10;;;;;;;11.98;9.13;;;13.10;99.90;;;;;;5096046;28;20047;-87
2023/05/13 05:11:37;;;;;;;13.02;8.95;;;13.10;99.90;;;;;;5096048;28;20498;-87
2023/05/13 05:14:02;;;;;;;11.02;9.07;;;13.20;99.90;;;;;;5096268;28;20044;-87
2023/05/13 05:16:28;;;;;;;17.58;9.40;;;13.20;99.90;;;;;;5096271;28;20044;-87
2023/05/13 05:18:54;;;;;;;13.57;8.30;;;13.30;99.90;;;;;;5096201;28;20044;-87
2023/05/13 05:21:20;;;;;;;15.07;8.63;;;13.30;99.90;;;;;;5095866;28;20059;-87
2023/05/13 05:23:46;;;;;;;13.55;8.77;;;13.30;99.90;;;;;;5096066;28;20070;-87
2023/05/13 05:26:11;;;;;;;13.80;8.98;;;13.50;99.90;;;;;;5095362;28;20079;-87
2023/05/13 05:28:38;;;;;;;16.60;8.93;;;13.40;99.90;;;;;;5094425;28;20063;-87
2023/05/13 05:31:05;;;;;;;11.70;8.23;;;13.60;99.90;;;;;;5094530;28;20052;-88
2023/05/13 05:33:31;;;;;;;12.25;8.55;;;13.60;99.90;;;;;;5094820;28;20142;-88
2023/05/13 05:35:56;;;;;;;12.57;8.70;;;13.70;99.90;;;;;;5095816;28;20082;-87
2023/05/13 05:38:25;;;;;;;14.85;9.38;;;13.80;99.90;;;;;;5095583;28;20079;-88
2023/05/13 05:40:51;;;;;;;15.30;9.15;;;13.80;99.90;;;;;;5095803;28;20097;-88
2023/05/13 05:43:16;;;;;;;13.52;9.43;;;13.90;99.90;;;;;;5095436;28;20043;-87
2023/05/13 05:45:42;;;;;;;15.82;9.27;;;13.90;99.90;;;;;;5094566;28;20054;-87
2023/05/13 05:48:08;;;;;;;16.08;8.68;;;13.90;99.90;;;;;;5095575;28;20092;-87
2023/05/13 05:50:35;;;;;;;17.67;9.50;;;14.10;99.90;;;;;;5095246;28;20441;-87
2023/05/13 05:53:01;;;;;;;14.45;8.85;;;14.10;99.90;;;;;;5095307;28;20485;-86
2023/05/13 05:55:27;;;;;;;14.38;9.13;;;14.20;99.90;;;;;;5095446;28;20048;-86
2023/05/13 05:57:54;;;;;;;13.27;9.13;;;14.30;99.90;;;;;;5095363;28;20048;-87
2023/05/13 06:00:20;;;;;;;16.45;10.52;;;14.20;99.90;;;;;;5095071;28;20514;-87
2023/05/13 06:02:47;;;;;;;16.33;9.05;;;14.30;99.90;;;;;;5095358;28;20511;-87
2023/05/13 06:05:13;;;;;;;15.85;9.60;;;14.40;99.90;;;;;;5095260;28;20048;-86
2023/05/13 06:07:39;;;;;;;13.82;8.60;;;14.40;99.90;;;;;;5094675;28;20373;-87
2023/05/13 06:10:05;;;;;;;16.33;9.43;;;14.50;99.90;;;;;;5093698;28;20050;-87
2023/05/13 06:12:31;;;;;;;16.08;9.75;;;14.60;99.90;;;;;;5095229;28;20048;-87
2023/05/13 06:14:57;;;;;;;13.35;9.07;;;14.80;99.90;;;;;;5095129;28;20048;-88
2023/05/13 06:17:24;;;;;;;15.73;9.38;;;14.80;99.90;;;;;;5094719;28;20058;-84
2023/05/13 06:19:49;;;;;;;14.82;8.90;;;15.00;99.90;;;;;;5094839;28;20048;-86
2023/05/13 06:22:15;;;;;;;15.23;8.85;;;15.10;99.90;;;;;;5094664;28;20105;-84
2023/05/13 06:24:47;;;;;;;15.13;9.27;;;15.20;99.90;;;;;;5094650;28;20043;-82
2023/05/13 06:27:17;;;;;;;12.70;8.88;;;15.00;99.90;;;;;;5094474;28;20406;-82
2023/05/13 06:29:43;;;;;;;12.95;9.45;;;15.20;99.90;;;;;;5094767;28;20089;-82
2023/05/13 06:32:09;;;;;;;15.13;9.80;;;15.20;99.90;;;;;;5094503;28;20032;-84
2023/05/13 06:34:35;;;;;;;13.75;9.00;;;15.30;99.90;;;;;;5094702;28;20051;-84
2023/05/13 06:37:00;;;;;;;15.07;9.10;;;15.40;99.90;;;;;;5091679;28;20036;-83
2023/05/13 06:39:26;;;;;;;13.40;8.45;;;15.10;99.90;;;;;;5084433;28;20036;-83
2023/05/13 06:41:51;;;;;;;16.23;9.63;;;15.20;99.90;;;;;;5094287;28;20032;-82
2023/05/13 06:44:17;;;;;;;13.52;9.10;;;15.50;99.90;;;;;;5094317;28;20043;-81
2023/05/13 06:46:43;;;;;;;13.18;9.45;;;15.50;99.90;;;;;;5093913;28;20043;-82
2023/05/13 06:49:08;;;;;;;16.23;9.35;;;15.40;99.90;;;;;;5093122;28;20052;-82
2023/05/13 06:51:34;;;;;;;14.70;8.88;;;15.60;99.90;;;;;;5094300;28;20032;-79
2023/05/13 06:54:00;;;;;;;14.18;8.82;;;15.70;99.90;;;;;;5094232;28;20050;-82
2023/05/13 06:56:26;;;;;;;13.05;9.48;;;15.90;99.90;;;;;;5092775;28;20488;-81
2023/05/13 06:58:52;;;;;;;12.48;8.73;;;15.90;99.90;;;;;;5092814;28;20118;-79
2023/05/13 07:01:18;;;;;;;17.20;10.10;;;15.90;99.90;;;;;;5094009;28;20123;-84
2023/05/13 07:03:44;;;;;;;13.65;9.32;;;16.00;99.90;;;;;;5092816;28;20109;-83
2023/05/13 07:06:10;;;;;;;13.93;9.93;;;16.00;99.90;;;;;;5094044;28;20039;-82
2023/05/13 07:08:36;;;;;;;18.80;9.88;;;16.00;99.90;;;;;;5093916;28;20040;-82
2023/05/13 07:11:02;;;;;;;12.82;9.52;;;15.90;99.90;;;;;;5092821;28;20066;-81
2023/05/13 07:13:28;;;;;;;10.95;8.52;;;15.90;99.90;;;;;;5093951;28;20082;-82
2023/05/13 07:15:54;;;;;;;12.18;9.00;;;16.00;99.90;;;;;;5093523;28;20078;-82
2023/05/13 07:18:20;;;;;;;13.38;9.45;;;15.90;99.90;;;;;;5093569;28;20040;-81
2023/05/13 07:20:45;;;;;;;17.55;9.63;;;16.20;99.90;;;;;;5092681;28;20127;-81
2023/05/13 07:23:11;;;;;;;13.32;9.25;;;16.10;99.90;;;;;;5093699;28;20044;-83
2023/05/13 07:25:37;;;;;;;15.85;10.18;;;16.20;99.90;;;;;;5092258;28;20067;-83
2023/05/13 07:28:03;;;;;;;13.13;9.77;;;16.20;99.90;;;;;;5092108;28;20052;-82
2023/05/13 07:30:29;;;;;;;10.43;9.32;;;16.30;99.90;;;;;;5093542;28;20059;-83
2023/05/13 07:32:55;;;;;;;13.13;9.57;;;16.20;99.90;;;;;;5093323;28;20044;-81
2023/05/13 07:35:21;;;;;;;18.58;9.88;;;16.40;99.90;;;;;;5093285;28;20487;-81
2023/05/13 07:37:46;;;;;;;12.85;9.10;;;16.60;99.90;;;;;;5093214;28;20376;-80
2023/05/13 07:40:12;;;;;;;13.00;9.93;;;16.70;99.90;;;;;;5092314;28;20059;-81
2023/05/13 07:42:38;;;;;;;13.90;9.48;;;16.50;99.90;;;;;;5093285;28;20467;-81
2023/05/13 07:45:06;;;;;;;14.50;9.85;;;16.60;99.90;;;;;;5093052;28;20557;-81
2023/05/13 07:47:32;;;;;;;20.23;10.27;;;16.80;99.90;;;;;;5092080;28;20054;-81
2023/05/13 07:49:58;;;;;;;14.77;9.32;;;16.60;99.90;;;;;;5093128;28;20131;-81
2023/05/13 07:52:24;;;;;;;14.70;10.25;;;16.80;99.90;;;;;;5093150;28;20567;-81
2023/05/13 07:54:50;;;;;;;16.55;11.27;;;16.60;99.90;;;;;;5092074;28;20135;-82
2023/05/13 07:57:15;;;;;;;15.32;9.85;;;16.70;99.90;;;;;;5093076;28;20080;-80
2023/05/13 07:59:41;;;;;;;16.05;10.10;;;16.80;99.90;;;;;;5092042;28;20048;-81
2023/05/13 08:02:07;;;;;;;17.38;9.23;;;16.80;99.90;;;;;;5093059;28;20048;-81
2023/05/13 08:04:33;;;;;;;14.18;9.98;;;16.90;99.90;;;;;;5093312;28;20075;-81
2023/05/13 08:07:00;;;;;;;13.15;9.93;;;17.00;99.90;;;;;;5093236;28;20052;-81
2023/05/13 08:09:26;;;;;;;18.73;9.77;;;17.20;99.90;;;;;;5091747;28;20048;-81
2023/05/13 08:11:53;;;;;;;14.40;10.00;;;17.20;99.90;;;;;;5091732;28;20036;-81
2023/05/13 08:14:19;;;;;;;20.30;9.60;;;17.10;99.90;;;;;;5091952;28;20056;-82
2023/05/13 08:16:44;;;;;;;19.60;10.00;;;16.80;99.90;;;;;;5092940;28;20047;-81
2023/05/13 08:19:13;;;;;;;14.27;9.65;;;17.10;99.90;;;;;;5093024;28;20065;-81
2023/05/13 08:21:38;;;;;;;18.02;9.70;;;17.10;99.90;;;;;;5093127;28;20040;-81
2023/05/13 08:24:04;;;;;;;21.38;9.93;;;17.20;99.90;;;;;;5092889;28;20044;-81
2023/05/13 08:26:30;;;;;;;16.30;9.90;;;17.50;99.90;;;;;;5092619;28;20130;-82
2023/05/13 08:28:56;;;;;;;17.05;9.95;;;17.50;99.90;;;;;;5093022;28;20189;-81
2023/05/13 08:31:23;;;;;;;20.48;9.93;;;17.30;99.90;;;;;;5094360;28;20039;-82
2023/05/13 08:33:50;;;;;;;13.88;10.05;;;17.60;99.90;;;;;;5095434;28;20059;-81
2023/05/13 08:36:16;;;;;;;12.98;8.88;;;17.80;99.90;;;;;;5095373;28;20084;-82
2023/05/13 08:38:42;;;;;;;12.27;9.60;;;17.60;99.90;;;;;;5095802;28;20177;-83
2023/05/13 08:41:12;;;;;;;15.15;9.45;;;17.70;99.90;;;;;;5096746;28;20105;-82
2023/05/13 08:43:39;;;;;;;20.10;10.55;;;17.80;99.90;;;;;;5096499;28;20373;-82
2023/05/13 08:46:08;;;;;;;14.25;9.98;;;18.10;99.90;;;;;;5096722;28;20040;-82
2023/05/13 08:48:34;;;;;;;15.32;9.50;;;18.00;99.90;;;;;;5096322;28;20087;-82
2023/05/13 08:51:01;;;;;;;12.98;9.95;;;17.80;99.90;;;;;;5096619;28;20046;-81
2023/05/13 08:53:27;;;;;;;14.05;9.32;;;17.70;99.90;;;;;;5094995;28;20052;-81
2023/05/13 08:55:54;;;;;;;17.73;10.52;;;17.90;99.90;;;;;;5094990;28;20040;-82
2023/05/13 08:58:19;;;;;;;13.48;9.73;;;17.90;99.90;;;;;;5096174;28;20487;-82
2023/05/13 09:00:47;;;;;;;19.00;10.40;;;17.70;99.90;;;;;;5096350;28;20058;-82
2023/05/13 09:03:14;;;;;;;13.07;9.63;;;17.30;99.90;;;;;;5096275;28;20036;-81
2023/05/13 09:05:42;;;;;;;18.35;9.95;;;17.60;99.90;;;;;;5096060;28;20548;-81
2023/05/13 09:08:08;;;;;;;14.75;9.95;;;17.70;99.90;;;;;;5096041;28;20091;-81
2023/05/13 09:10:35;;;;;;;12.32;9.55;;;17.90;99.90;;;;;;5095967;28;20115;-81
2023/05/13 09:13:01;;;;;;;14.05;10.13;;;17.70;99.90;;;;;;5096144;28;20055;-82
2023/05/13 09:15:28;;;;;;;14.88;9.35;;;17.30;99.90;;;;;;5096201;28;20039;-81
2023/05/13 09:18:04;;;;;;;14.95;10.35;;;17.60;99.90;;;;;;5094565;28;20120;-81
2023/05/13 09:20:31;;;;;;;13.63;10.32;;;17.90;99.90;;;;;;5095942;28;20048;-81
2023/05/13 09:23:07;;;;;;;13.98;9.68;;;17.50;99.90;;;;;;5095569;28;20066;-81
2023/05/13 09:25:33;;;;;;;13.85;9.77;;;17.40;99.90;;;;;;5095675;28;20126;-81
2023/05/13 09:28:01;;;;;;;14.27;9.77;;;17.60;99.90;;;;;;5095683;28;20067;-81
2023/05/13 09:30:34;;;;;;;15.02;10.13;;;17.50;99.90;;;;;;5094662;28;20426;-81
2023/05/13 09:33:09;;;;;;;16.85;10.73;;;17.80;99.90;;;;;;5095734;28;20040;-81
2023/05/13 09:35:40;;;;;;;16.02;10.75;;;18.00;99.90;;;;;;5095553;28;20048;-82
2023/05/13 09:38:13;;;;;;;12.20;10.25;;;18.30;99.90;;;;;;5095572;28;20055;-82
2023/05/13 09:40:39;;;;;;;15.18;10.48;;;18.30;99.90;;;;;;5095699;28;20075;-81
2023/05/13 09:43:07;;;;;;;14.23;10.40;;;18.10;99.90;;;;;;5093279;28;20050;-82
2023/05/13 09:45:33;;;;;;;16.80;9.88;;;18.00;99.90;;;;;;5095258;28;20086;-82
2023/05/13 09:47:59;;;;;;;14.30;9.80;;;18.00;99.90;;;;;;5095419;28;20130;-82
2023/05/13 09:50:25;;;;;;;12.75;9.73;;;18.10;99.90;;;;;;5095223;28;20052;-82
2023/05/13 09:52:51;;;;;;;15.90;10.30;;;18.00;99.90;;;;;;5095369;28;20090;-83
2023/05/13 09:55:17;;;;;;;17.33;10.00;;;18.00;99.90;;;;;;5095271;28;20472;-82
2023/05/13 09:57:42;;;;;;;14.93;11.20;;;17.90;99.90;;;;;;5094984;28;20506;-82
2023/05/13 10:00:08;;;;;;;14.77;10.30;;;18.10;99.90;;;;;;5095342;28;20082;-82
2023/05/13 10:02:34;;;;;;;11.63;10.20;;;18.20;99.90;;;;;;5127831;27;20040;-83
2023/05/13 10:05:01;;;;;;;12.43;10.77;;;18.10;99.90;;;;;;5094952;28;20051;-82
2023/05/13 10:07:27;;;;;;;16.88;10.13;;;18.00;99.90;;;;;;5094760;28;20521;-85
2023/05/13 10:10:00;;;;;;;13.70;9.57;;;18.40;99.90;;;;;;5093614;28;20048;-84
2023/05/13 10:12:27;;;;;;;14.00;10.38;;;18.60;99.90;;;;;;5094941;28;20073;-83
2023/05/13 10:14:54;;;;;;;12.52;10.48;;;18.60;99.90;;;;;;5093729;28;20125;-84
2023/05/13 10:17:24;;;;;;;14.68;11.18;;;18.40;99.90;;;;;;5094685;28;20480;-85
2023/05/13 10:19:52;;;;;;;13.48;10.13;;;18.40;99.90;;;;;;5095041;28;20036;-85
2023/05/13 10:22:29;;;;;;;16.67;9.98;;;18.30;99.90;;;;;;5094843;28;20142;-85
2023/05/13 10:25:00;;;;;;;16.13;10.10;;;18.40;99.90;;;;;;5094540;28;20181;-85
2023/05/13 10:27:28;;;;;;;14.40;10.82;;;18.30;99.90;;;;;;5093344;28;20051;-84
2023/05/13 10:29:55;;;;;;;16.50;10.77;;;18.30;99.90;;;;;;5094437;28;20048;-84
2023/05/13 10:32:25;;;;;;;16.50;10.25;;;18.40;99.90;;;;;;5093164;28;20471;-85
2023/05/13 10:35:12;;;;;;;14.73;10.02;;;18.70;99.90;;;;;;5093126;28;20483;-84
2023/05/13 10:38:15;;;;;;;12.73;10.35;;;18.40;99.90;;;;;;5094313;28;20522;-86
2023/05/13 10:41:16;;;;;;;14.90;10.32;;;18.50;99.90;;;;;;5094472;28;20058;-84
2023/05/13 10:43:42;;;;;;;17.67;10.98;;;18.50;99.90;;;;;;5031829;28;20121;-86
2023/05/13 10:46:11;;;;;;;18.08;10.82;;;18.40;99.90;;;;;;5110548;27;20210;-85
2023/05/13 10:48:53;;;;;;;17.75;11.20;;;18.60;99.90;;;;;;5094446;28;20048;-85
2023/05/13 10:51:23;;;;;;;14.30;10.40;;;18.70;99.90;;;;;;5094357;28;20499;-84
2023/05/13 10:53:50;;;;;;;16.30;10.45;;;18.90;99.90;;;;;;5094053;28;20036;-84
2023/05/13 10:56:20;;;;;;;14.63;10.85;;;19.10;99.90;;;;;;5094250;28;20052;-84
2023/05/13 10:59:06;;;;;;;14.50;10.63;;;18.90;99.90;;;;;;5094058;28;20471;-85
2023/05/13 11:01:42;;;;;;;16.55;10.43;;;18.90;99.90;;;;;;5094212;28;20463;-84
2023/05/13 11:04:16;;;;;;;15.43;10.63;;;18.90;99.90;;;;;;5093047;28;20101;-85
2023/05/13 11:06:45;;;;;;;15.60;10.73;;;18.50;99.90;;;;;;5093288;28;20040;-85
2023/05/13 11:09:13;;;;;;;14.25;10.25;;;18.50;99.90;;;;;;5092572;28;20388;-85
2023/05/13 11:11:40;;;;;;;14.95;9.77;;;18.70;99.90;;;;;;5094190;28;20044;-85
2023/05/13 11:14:18;;;;;;;16.83;10.73;;;18.90;99.90;;;;;;5093900;28;20392;-85
2023/05/13 11:17:00;;;;;;;15.07;10.93;;;18.90;99.90;;;;;;5093833;28;20467;-85
2023/05/13 11:19:31;;;;;;;16.05;11.07;;;19.10;99.90;;;;;;5093952;28;20062;-84
2023/05/13 11:22:17;;;;;;;15.85;10.25;;;19.10;99.90;;;;;;5094075;28;20058;-85
2023/05/13 11:25:05;;;;;;;13.52;11.13;;;19.20;99.90;;;;;;5082657;28;20048;-84
2023/05/13 11:27:38;;;;;;;18.25;10.15;;;18.70;99.90;;;;;;5093909;28;20096;-85
2023/05/13 11:30:21;;;;;;;13.30;9.95;;;18.80;99.90;;;;;;5093914;28;20044;-85
2023/05/13 11:32:50;;;;;;;14.02;9.68;;;18.80;99.90;;;;;;5093879;28;20039;-85
2023/05/13 11:35:30;;;;;;;12.05;9.20;;;18.40;99.90;;;;;;5093903;28;20090;-83
2023/05/13 11:38:01;;;;;;;16.42;10.85;;;18.80;99.90;;;;;;5092572;28;20499;-85
2023/05/13 11:40:29;;;;;;;15.88;9.73;;;18.70;99.90;;;;;;5093747;28;20090;-85
2023/05/13 11:42:55;;;;;;;19.08;10.13;;;18.50;99.90;;;;;;5093748;28;20162;-84
2023/05/13 11:45:22;;;;;;;16.65;10.30;;;18.60;99.90;;;;;;5093652;28;20055;-86
2023/05/13 11:47:49;;;;;;;15.48;10.13;;;18.70;99.90;;;;;;5093341;28;20047;-81
2023/05/13 11:50:24;;;;;;;13.68;10.65;;;18.90;99.90;;;;;;5093514;28;20115;-84
2023/05/13 11:52:56;;;;;;;15.43;10.63;;;18.80;99.90;;;;;;5093462;28;20036;-85
2023/05/13 11:55:28;;;;;;;14.15;10.35;;;19.10;99.90;;;;;;5093605;28;20115;-84
2023/05/13 11:57:54;;;;;;;17.90;10.60;;;19.20;99.90;;;;;;5093632;28;20036;-83
2023/05/13 12:00:28;;;;;;;16.58;10.25;;;18.90;99.90;;;;;;5093432;28;20079;-83
2023/05/13 12:02:54;;;;;;;12.48;10.38;;;19.20;99.90;;;;;;5093381;28;20044;-85
2023/05/13 12:05:20;;;;;;;12.73;9.63;;;18.80;99.90;;;;;;5093389;28;20047;-84
2023/05/13 12:07:46;;;;;;;15.57;10.55;;;18.90;99.90;;;;;;5095684;28;20055;-83
2023/05/13 12:10:12;;;;;;;16.48;10.50;;;18.60;99.90;;;;;;5097384;28;20048;-84
2023/05/13 12:12:40;;;;;;;13.00;11.00;;;18.90;99.90;;;;;;5097529;28;20051;-86
2023/05/13 12:15:15;;;;;;;14.55;10.02;;;19.00;99.90;;;;;;5095942;28;20074;-87
2023/05/13 12:17:42;;;;;;;14.88;10.20;;;18.80;99.90;;;;;;5097160;28;20032;-85
2023/05/13 12:20:13;;;;;;;14.55;9.43;;;18.60;99.90;;;;;;5097427;28;20126;-86
2023/05/13 12:22:41;;;;;;;17.83;10.07;;;18.70;99.90;;;;;;5096072;28;20108;-83
2023/05/13 12:25:42;;;;;;;17.48;9.65;;;18.40;99.90;;;;;;5097046;28;20095;-85
2023/05/13 12:28:16;;;;;;;14.15;9.18;;;18.50;99.90;;;;;;5097242;28;20080;-85
2023/05/13 12:30:52;;;;;;;11.38;8.68;;;18.10;99.90;;;;;;5095761;28;20048;-86
2023/05/13 12:33:20;;;;;;;14.13;9.05;;;18.20;99.90;;;;;;5097276;28;20449;-88